Terminal Aerodrome Forecast
Issued by NWS

Home | Current Version | Previous Version | Text Only | Print | Product List | Glossary On
Versions: 1 2 3 4 5 6 7 8 9 10 11 12 13
000
FTUS45 KGGW 171100
TAFSDY
TAF
KSDY 171125Z 1712/1812 11010KT P6SM SCT029 BKN035
      TEMPO 1712/1713 BKN029
     FM171800 13015KT P6SM BKN060
     FM180000 13012KT P6SM BKN080
      AMD LTD TO CLD VIS AND WIND=

USA.gov is the U.S. government's official web portal to all federal, state and local government web resources and services.